createdAt,value
2016-11-21T00:18:24.279Z,37.82
2016-11-21T00:19:04.991Z,37.92
2016-11-21T00:19:45.674Z,37.73
2016-11-21T00:20:26.394Z,37.92
2016-11-21T00:21:07.082Z,37.82
2016-11-21T00:21:47.789Z,37.92
2016-11-21T00:22:28.453Z,37.82
2016-11-21T00:23:09.207Z,37.82
2016-11-21T00:23:49.891Z,37.82
2016-11-21T00:24:30.558Z,38.02
2016-11-21T00:25:11.236Z,37.82
2016-11-21T00:25:51.969Z,37.73
2016-11-21T00:26:32.615Z,37.73
2016-11-21T00:27:13.312Z,37.54
2016-11-21T00:27:54.001Z,37.82
2016-11-21T00:28:34.653Z,37.63
2016-11-21T00:29:15.378Z,37.82
2016-11-21T00:29:56.085Z,37.63
2016-11-21T00:30:36.777Z,37.73
2016-11-21T00:31:17.469Z,37.82
2016-11-21T00:31:58.133Z,37.54
2016-11-21T00:32:38.810Z,37.63
2016-11-21T00:33:19.539Z,37.63
2016-11-21T00:34:00.223Z,37.63
2016-11-21T00:34:40.919Z,37.73
2016-11-21T00:35:21.652Z,37.73
2016-11-21T00:36:02.282Z,37.73
2016-11-21T00:36:43.013Z,37.63
2016-11-21T00:37:23.696Z,37.73
2016-11-21T00:38:04.360Z,37.82
2016-11-21T00:38:45.063Z,37.63
2016-11-21T00:39:25.759Z,37.54
2016-11-21T00:40:06.486Z,37.63
2016-11-21T00:40:47.236Z,37.54
2016-11-21T00:41:27.851Z,37.34
2016-11-21T00:42:08.538Z,37.54
2016-11-21T00:42:49.310Z,37.36
2016-11-21T00:43:30.061Z,37.54
2016-11-21T00:44:10.805Z,37.44
2016-11-21T00:44:51.495Z,37.54
2016-11-21T00:45:32.256Z,37.54
2016-11-21T00:46:12.912Z,37.34
2016-11-21T00:46:53.602Z,37.55
2016-11-21T00:47:34.329Z,37.54
2016-11-21T00:48:14.994Z,37.44
2016-11-21T00:48:55.779Z,37.54
2016-11-21T00:49:36.503Z,37.65
2016-11-21T00:50:17.184Z,37.44
2016-11-21T00:50:57.931Z,37.36
2016-11-21T00:51:38.616Z,37.34
2016-11-21T00:52:19.425Z,37.55
2016-11-21T00:53:00.101Z,37.24
2016-11-21T00:53:40.808Z,37.44
2016-11-21T00:54:21.519Z,37.46
2016-11-21T00:55:02.270Z,37.36
2016-11-21T00:55:42.953Z,37.36
2016-11-21T00:56:23.646Z,37.34
2016-11-21T00:57:04.348Z,37.36
2016-11-21T00:57:45.087Z,37.36
2016-11-21T00:58:25.887Z,37.36
2016-11-21T00:59:06.516Z,37.36
2016-11-21T00:59:47.205Z,37.44
2016-11-21T01:00:27.928Z,37.44
2016-11-21T01:01:08.624Z,37.34
2016-11-21T01:01:49.348Z,37.34
2016-11-21T01:02:30.037Z,37.46
2016-11-21T01:03:10.714Z,37.46
2016-11-21T01:03:51.443Z,37.34
2016-11-21T01:04:32.119Z,37.34
2016-11-21T01:05:12.789Z,37.46
2016-11-21T01:05:53.527Z,37.46
2016-11-21T01:06:34.237Z,37.26
2016-11-21T01:07:14.935Z,37.36
2016-11-21T01:07:55.613Z,37.17
2016-11-21T01:08:36.220Z,37.26
2016-11-21T01:09:16.950Z,37.15
2016-11-21T01:09:57.655Z,37.17
2016-11-21T01:10:38.337Z,37.36
2016-11-21T01:11:19.023Z,37.17
2016-11-21T01:11:59.710Z,37.26
2016-11-21T01:12:40.374Z,37.17
2016-11-21T01:13:21.045Z,37.26
2016-11-21T01:14:01.751Z,37.26
2016-11-21T01:14:42.424Z,37.17
2016-11-21T01:15:23.103Z,37.07
2016-11-21T01:16:03.818Z,37.26
2016-11-21T01:16:44.577Z,37.26
2016-11-21T01:17:25.225Z,37.26
2016-11-21T01:18:05.955Z,37.36
2016-11-21T01:18:46.581Z,37.07
2016-11-21T01:19:27.271Z,37.36
2016-11-21T01:20:07.962Z,37.26
2016-11-21T01:20:48.631Z,37.26
2016-11-21T01:21:29.290Z,37.07
2016-11-21T01:22:09.964Z,37.17
2016-11-21T01:22:50.665Z,37.07
2016-11-21T01:23:31.356Z,37.17
2016-11-21T01:24:12.108Z,37.17
2016-11-21T01:24:52.771Z,37.17
2016-11-21T01:25:33.473Z,37.17
2016-11-21T01:26:14.181Z,37.17
2016-11-21T01:26:54.909Z,37.17
2016-11-21T01:27:35.588Z,37.17
2016-11-21T01:28:16.260Z,37.17
2016-11-21T01:28:56.921Z,37.17
2016-11-21T01:29:37.685Z,37.07
2016-11-21T01:30:18.365Z,37.17
2016-11-21T01:30:59.052Z,37.17
2016-11-21T01:31:39.658Z,37.17
2016-11-21T01:32:20.343Z,37.17
2016-11-21T01:33:01.061Z,37.17
2016-11-21T01:33:41.796Z,37.26
2016-11-21T01:34:22.482Z,37.17
2016-11-21T01:35:03.117Z,37.17
2016-11-21T01:35:43.825Z,37.07
2016-11-21T01:36:24.526Z,37.17
2016-11-21T01:37:05.189Z,37.17
2016-11-21T01:37:45.914Z,37.17
2016-11-21T01:38:26.639Z,37.17
2016-11-21T01:39:07.306Z,37.17
2016-11-21T01:39:48.009Z,37.07
2016-11-21T01:40:28.708Z,37.17
2016-11-21T01:41:09.404Z,37.07
2016-11-21T01:41:50.085Z,36.98
2016-11-21T01:42:30.832Z,37.17
2016-11-21T01:43:11.497Z,37.17
2016-11-21T01:43:52.185Z,37.17
2016-11-21T01:44:32.950Z,37.17
2016-11-21T01:45:13.636Z,37.17
2016-11-21T01:45:54.264Z,37.07
2016-11-21T01:46:35.043Z,37.07
2016-11-21T01:47:15.816Z,37.17
2016-11-21T01:47:56.447Z,37.07
2016-11-21T01:48:37.179Z,37.07
2016-11-21T01:49:17.875Z,37.17
2016-11-21T01:49:58.578Z,37.17
2016-11-21T01:50:39.320Z,37.26
2016-11-21T01:51:20.006Z,37.17
2016-11-21T01:52:00.667Z,37.07
2016-11-21T01:52:41.354Z,37.07
2016-11-21T01:53:22.095Z,37.17
2016-11-21T01:54:02.806Z,37.17
2016-11-21T01:54:43.467Z,37.17
2016-11-21T01:55:24.203Z,37.26
2016-11-21T01:56:04.889Z,37.17
2016-11-21T01:56:45.550Z,37.07
2016-11-21T01:57:26.200Z,37.07
2016-11-21T01:58:06.910Z,37.26
2016-11-21T01:58:47.613Z,37.17
2016-11-21T01:59:28.262Z,36.98
2016-11-21T02:00:08.974Z,37.17
2016-11-21T02:00:49.742Z,37.07
2016-11-21T02:01:30.418Z,37.26
2016-11-21T02:02:11.117Z,37.07
2016-11-21T02:02:51.902Z,37.17
2016-11-21T02:03:32.584Z,37.17
2016-11-21T02:04:13.257Z,37.17
2016-11-21T02:04:53.920Z,37.26
2016-11-21T02:05:34.650Z,37.17
2016-11-21T02:06:15.316Z,37.26
2016-11-21T02:06:56.004Z,37.17
2016-11-21T02:07:36.699Z,36.98
2016-11-21T02:08:17.378Z,37.17
2016-11-21T02:08:58.076Z,37.17
2016-11-21T02:09:38.752Z,37.26
2016-11-21T02:10:19.398Z,37.07
2016-11-21T02:11:00.131Z,37.07
2016-11-21T02:11:40.726Z,37.17
2016-11-21T02:12:21.393Z,37.17
2016-11-21T02:13:02.036Z,37.17
2016-11-21T02:13:42.725Z,37.17
2016-11-21T02:14:23.429Z,37.17
2016-11-21T02:15:04.144Z,37.17
2016-11-21T02:15:44.766Z,37.07
2016-11-21T02:16:25.503Z,37.07
2016-11-21T02:17:06.151Z,37.17
2016-11-21T02:17:46.842Z,37.17
2016-11-21T02:18:27.538Z,37.07
2016-11-21T02:19:08.246Z,37.17
2016-11-21T02:19:48.980Z,37.17
2016-11-21T02:20:29.683Z,37.36
2016-11-21T02:21:10.413Z,37.07
2016-11-21T02:21:51.051Z,37.17
2016-11-21T02:22:31.757Z,37.17
2016-11-21T02:23:12.472Z,37.17
2016-11-21T02:23:53.142Z,37.17
2016-11-21T02:24:33.799Z,37.17
2016-11-21T02:25:14.491Z,37.07
2016-11-21T02:25:55.194Z,37.17
2016-11-21T02:26:35.902Z,37.17
2016-11-21T02:27:16.620Z,37.17
2016-11-21T02:27:57.361Z,37.17
2016-11-21T02:28:38.124Z,37.17
2016-11-21T02:29:18.826Z,37.17
2016-11-21T02:29:59.488Z,37.17
2016-11-21T02:30:40.221Z,37.17
2016-11-21T02:31:20.949Z,37.17
2016-11-21T02:32:01.615Z,37.26
2016-11-21T02:32:42.325Z,36.98
2016-11-21T02:33:23.020Z,37.17
2016-11-21T02:34:03.756Z,37.17
2016-11-21T02:34:44.469Z,37.17
2016-11-21T02:35:25.173Z,37.07
2016-11-21T02:36:05.916Z,37.17
2016-11-21T02:36:46.591Z,37.07
2016-11-21T02:37:27.314Z,36.98
2016-11-21T02:38:08.047Z,37.17
2016-11-21T02:38:48.736Z,37.26
2016-11-21T02:39:29.420Z,37.17
2016-11-21T02:40:10.044Z,36.98
2016-11-21T02:40:50.729Z,37.17
2016-11-21T02:41:31.461Z,37.17
2016-11-21T02:42:12.187Z,37.17
2016-11-21T02:42:52.830Z,37.17
2016-11-21T02:43:33.509Z,36.98
2016-11-21T02:44:14.223Z,37.17
2016-11-21T02:44:54.920Z,37.17
2016-11-21T02:45:35.671Z,37.17
2016-11-21T02:46:16.328Z,37.17
2016-11-21T02:46:57.071Z,37.07
2016-11-21T02:47:37.776Z,37.07
2016-11-21T02:48:18.403Z,37.07
2016-11-21T02:48:59.114Z,37.07
2016-11-21T02:49:39.824Z,37.07
2016-11-21T02:50:20.517Z,37.07
2016-11-21T02:51:01.232Z,37.07
2016-11-21T02:51:41.963Z,37.26
2016-11-21T02:52:22.613Z,37.17
2016-11-21T02:53:03.365Z,37.26
2016-11-21T02:53:44.053Z,37.17
2016-11-21T02:54:24.849Z,37.26
2016-11-21T02:55:05.539Z,37.17
2016-11-21T02:55:46.189Z,37.07
2016-11-21T02:56:26.854Z,37.17
2016-11-21T02:57:07.558Z,37.26
2016-11-21T02:57:48.281Z,37.17
2016-11-21T02:58:28.974Z,37.07
2016-11-21T02:59:09.673Z,37.26
2016-11-21T02:59:50.346Z,37.17
2016-11-21T03:00:31.060Z,37.17
2016-11-21T03:01:11.744Z,37.26
2016-11-21T03:01:52.407Z,37.26
2016-11-21T03:02:33.068Z,37.07
2016-11-21T03:03:13.732Z,37.26
2016-11-21T03:03:54.411Z,37.26
2016-11-21T03:04:35.086Z,37.26
2016-11-21T03:05:15.848Z,37.17
2016-11-21T03:05:56.510Z,37.17
2016-11-21T03:06:37.243Z,37.17
2016-11-21T03:07:17.900Z,37.17
2016-11-21T03:07:58.618Z,37.17
2016-11-21T03:08:39.284Z,37.07
2016-11-21T03:09:19.980Z,37.26
2016-11-21T03:10:00.696Z,37.07
2016-11-21T03:10:41.423Z,37.07
2016-11-21T03:11:22.117Z,37.17
2016-11-21T03:12:02.814Z,37.26
2016-11-21T03:12:43.453Z,37.26
2016-11-21T03:13:24.107Z,37.26
2016-11-21T03:14:04.795Z,37.17
2016-11-21T03:14:45.583Z,37.17
2016-11-21T03:15:26.270Z,37.26
2016-11-21T03:16:06.956Z,37.07
2016-11-21T03:16:47.646Z,37.26
2016-11-21T03:17:28.334Z,37.26
2016-11-21T03:18:09.072Z,37.17
2016-11-21T03:18:49.683Z,37.26
2016-11-21T03:19:30.321Z,37.26
2016-11-21T03:20:11.050Z,37.26
2016-11-21T03:20:51.731Z,37.26
2016-11-21T03:21:32.477Z,37.36
2016-11-21T03:22:13.181Z,37.26
2016-11-21T03:22:53.877Z,37.46
2016-11-21T03:23:34.651Z,37.17
2016-11-21T03:24:15.348Z,37.17
2016-11-21T03:24:55.947Z,37.26
2016-11-21T03:25:36.615Z,37.26
2016-11-21T03:26:17.320Z,37.46
2016-11-21T03:26:58.040Z,37.36
2016-11-21T03:27:38.727Z,37.36
2016-11-21T03:28:19.443Z,37.17
2016-11-21T03:29:00.206Z,37.26
2016-11-21T03:29:40.870Z,37.26
2016-11-21T03:30:21.620Z,37.26
2016-11-21T03:31:02.184Z,37.26
2016-11-21T03:31:42.834Z,37.36
2016-11-21T03:32:23.503Z,37.26
2016-11-21T03:33:04.180Z,37.26
2016-11-21T03:33:44.856Z,37.36
2016-11-21T03:34:25.518Z,37.36
2016-11-21T03:35:06.223Z,37.26
2016-11-21T03:35:46.931Z,37.17
2016-11-21T03:36:27.616Z,37.17
2016-11-21T03:37:08.256Z,37.26
2016-11-21T03:37:48.996Z,37.17
2016-11-21T03:38:29.702Z,37.17
2016-11-21T03:39:10.420Z,37.46
2016-11-21T03:39:51.127Z,37.26
2016-11-21T03:40:31.845Z,37.26
2016-11-21T03:41:12.545Z,37.55
2016-11-21T03:41:53.294Z,37.46
2016-11-21T03:42:34.021Z,37.36
2016-11-21T03:43:14.666Z,37.17
2016-11-21T03:43:55.432Z,37.26
2016-11-21T03:44:36.160Z,37.36
2016-11-21T03:45:16.822Z,37.36
2016-11-21T03:45:57.524Z,37.46
2016-11-21T03:46:38.221Z,37.36
2016-11-21T03:47:18.928Z,37.17
2016-11-21T03:47:59.613Z,37.26
2016-11-21T03:48:40.286Z,37.46
2016-11-21T03:49:20.996Z,37.55
2016-11-21T03:50:01.760Z,37.26
2016-11-21T03:50:42.462Z,37.26
2016-11-21T03:51:23.175Z,37.46
2016-11-21T03:52:03.881Z,37.36
2016-11-21T03:52:44.570Z,37.46
2016-11-21T03:53:25.257Z,37.36
2016-11-21T03:54:05.977Z,37.26
2016-11-21T03:54:46.639Z,37.46
2016-11-21T03:55:27.335Z,37.36
2016-11-21T03:56:07.980Z,37.46
2016-11-21T03:56:48.694Z,37.46
2016-11-21T03:57:29.448Z,37.36
2016-11-21T03:58:10.172Z,37.46
2016-11-21T03:58:50.858Z,37.55
2016-11-21T03:59:31.539Z,37.46
2016-11-21T04:00:12.209Z,37.46
2016-11-21T04:00:52.877Z,37.36
2016-11-21T04:01:33.526Z,37.46
2016-11-21T04:02:14.229Z,37.46
2016-11-21T04:02:54.901Z,37.46
2016-11-21T04:03:35.571Z,37.36
2016-11-21T04:04:16.252Z,37.36
2016-11-21T04:04:56.916Z,37.46
2016-11-21T04:05:37.617Z,37.36
2016-11-21T04:06:18.293Z,37.46
2016-11-21T04:06:58.976Z,37.55
2016-11-21T04:07:39.658Z,37.36
2016-11-21T04:08:20.404Z,37.55
2016-11-21T04:09:01.120Z,37.36
2016-11-21T04:09:41.885Z,37.36
2016-11-21T04:10:22.523Z,37.46
2016-11-21T04:11:03.218Z,37.36
2016-11-21T04:11:43.878Z,37.46
2016-11-21T04:12:24.572Z,37.36
2016-11-21T04:13:05.291Z,37.36
2016-11-21T04:13:45.985Z,37.46
2016-11-21T04:14:26.698Z,37.36
2016-11-21T04:15:07.399Z,37.36
2016-11-21T04:15:48.113Z,37.26
2016-11-21T04:16:28.870Z,37.36
2016-11-21T04:17:09.577Z,37.46
2016-11-21T04:17:50.314Z,37.46
2016-11-21T04:18:31.015Z,37.46
2016-11-21T04:19:11.716Z,37.46
2016-11-21T04:19:52.407Z,37.46
2016-11-21T04:20:33.032Z,37.46
2016-11-21T04:21:13.745Z,37.36
2016-11-21T04:21:54.467Z,37.55
2016-11-21T04:22:35.160Z,37.26
2016-11-21T04:23:15.879Z,37.46
2016-11-21T04:23:56.619Z,37.46
2016-11-21T04:24:37.959Z,37.46
2016-11-21T04:25:18.660Z,37.36
2016-11-21T04:25:59.278Z,37.26
2016-11-21T04:26:39.966Z,37.26
2016-11-21T04:27:20.642Z,37.65
2016-11-21T04:28:01.356Z,37.26
2016-11-21T04:28:42.009Z,37.36
2016-11-21T04:29:22.681Z,37.36
2016-11-21T04:30:03.375Z,37.36
2016-11-21T04:30:44.100Z,37.46
2016-11-21T04:31:24.833Z,37.46
2016-11-21T04:32:05.590Z,37.55
2016-11-21T04:32:46.349Z,37.26
2016-11-21T04:33:27.007Z,37.65
2016-11-21T04:34:07.702Z,37.26
2016-11-21T04:34:48.372Z,37.55
2016-11-21T04:35:29.064Z,37.46
2016-11-21T04:36:09.713Z,37.55
2016-11-21T04:36:50.372Z,37.46
2016-11-21T04:37:31.105Z,37.75
2016-11-21T04:38:11.773Z,37.65
2016-11-21T04:38:52.461Z,37.55
2016-11-21T04:39:33.142Z,37.55
2016-11-21T04:40:13.787Z,37.46
2016-11-21T04:40:54.479Z,37.75
2016-11-21T04:41:35.216Z,37.46
2016-11-21T04:42:15.929Z,37.65
2016-11-21T04:42:56.614Z,37.46
2016-11-21T04:43:37.255Z,37.46
2016-11-21T04:44:18.027Z,37.75
2016-11-21T04:44:58.718Z,37.55
2016-11-21T04:45:39.394Z,37.46
2016-11-21T04:46:20.078Z,37.55
2016-11-21T04:47:00.790Z,37.55
2016-11-21T04:47:41.516Z,37.65
2016-11-21T04:48:22.166Z,37.65
2016-11-21T04:49:02.954Z,37.55
2016-11-21T04:49:43.621Z,37.26
2016-11-21T04:50:24.289Z,37.55
2016-11-21T04:51:04.990Z,37.55
2016-11-21T04:51:45.627Z,37.46
2016-11-21T04:52:26.362Z,37.46
2016-11-21T04:53:07.076Z,37.55
2016-11-21T04:53:47.770Z,37.55
2016-11-21T04:54:28.512Z,37.55
2016-11-21T04:55:09.187Z,37.55
2016-11-21T04:55:49.925Z,37.46
2016-11-21T04:56:30.638Z,37.55
2016-11-21T04:57:11.336Z,37.55
2016-11-21T04:57:51.984Z,37.55
2016-11-21T04:58:32.697Z,37.65
2016-11-21T04:59:13.420Z,37.55
2016-11-21T04:59:54.168Z,37.65
2016-11-21T05:00:34.909Z,37.55
2016-11-21T05:01:15.572Z,37.55
2016-11-21T05:01:56.267Z,37.65
2016-11-21T05:02:36.990Z,37.55
2016-11-21T05:03:17.668Z,37.36
2016-11-21T05:03:58.334Z,37.55
2016-11-21T05:04:39.043Z,37.55
2016-11-21T05:05:19.819Z,37.55
2016-11-21T05:06:00.559Z,37.55
2016-11-21T05:06:41.230Z,37.55
2016-11-21T05:07:21.954Z,37.46
2016-11-21T05:08:02.657Z,37.55
2016-11-21T05:08:43.344Z,37.36
2016-11-21T05:09:23.997Z,37.55
2016-11-21T05:10:04.715Z,37.55
2016-11-21T05:10:45.451Z,37.55
2016-11-21T05:11:26.125Z,37.46
2016-11-21T05:12:06.862Z,37.36
2016-11-21T05:12:47.491Z,37.46
2016-11-21T05:13:28.131Z,37.55
2016-11-21T05:14:08.782Z,37.46
2016-11-21T05:14:49.515Z,37.46
2016-11-21T05:15:30.202Z,37.46
2016-11-21T05:16:10.892Z,37.55
2016-11-21T05:16:51.606Z,37.55
2016-11-21T05:17:32.346Z,37.46
2016-11-21T05:18:13.015Z,37.46
2016-11-21T05:18:53.715Z,37.46
2016-11-21T05:19:34.447Z,37.46
2016-11-21T05:20:15.163Z,37.46
2016-11-21T05:20:55.836Z,37.65
2016-11-21T05:21:36.549Z,37.55
2016-11-21T05:22:17.210Z,37.46
2016-11-21T05:22:57.917Z,37.55
2016-11-21T05:23:38.648Z,37.46
2016-11-21T05:24:19.291Z,37.55
2016-11-21T05:25:00.009Z,37.46
2016-11-21T05:25:40.711Z,37.46
2016-11-21T05:26:21.398Z,37.55
2016-11-21T05:27:02.055Z,37.55
2016-11-21T05:27:42.820Z,37.55
2016-11-21T05:28:23.537Z,37.36
2016-11-21T05:29:04.150Z,37.46
2016-11-21T05:29:44.889Z,37.65
2016-11-21T05:30:25.643Z,37.46
2016-11-21T05:31:06.377Z,37.46
2016-11-21T05:31:48.021Z,37.55
2016-11-21T05:32:28.699Z,37.55
2016-11-21T05:33:09.372Z,37.46
2016-11-21T05:33:50.088Z,37.46
2016-11-21T05:34:30.785Z,37.46
2016-11-21T05:35:11.444Z,37.55
2016-11-21T05:35:52.093Z,37.55
2016-11-21T05:36:32.757Z,37.75
2016-11-21T05:37:13.422Z,37.46
2016-11-21T05:37:54.100Z,37.46
2016-11-21T05:38:34.748Z,37.65
2016-11-21T05:39:15.478Z,37.55
2016-11-21T05:39:56.143Z,37.55
2016-11-21T05:40:36.778Z,37.55
2016-11-21T05:41:17.558Z,37.65
2016-11-21T05:41:58.253Z,37.55
2016-11-21T05:42:38.893Z,37.65
2016-11-21T05:43:19.581Z,37.65
2016-11-21T05:44:00.270Z,37.65
2016-11-21T05:44:41.068Z,37.85
2016-11-21T05:45:21.808Z,37.65
2016-11-21T05:46:02.551Z,37.55
2016-11-21T05:46:43.288Z,37.55
2016-11-21T05:47:24.070Z,37.36
2016-11-21T05:48:04.782Z,37.55
2016-11-21T05:48:45.504Z,37.65
2016-11-21T05:49:26.231Z,37.75
2016-11-21T05:50:06.964Z,37.65
2016-11-21T05:50:47.640Z,37.75
2016-11-21T05:51:28.339Z,37.65
2016-11-21T05:52:09.058Z,37.65
2016-11-21T05:52:49.802Z,37.94
2016-11-21T05:53:30.451Z,37.75
2016-11-21T05:54:11.161Z,37.65
2016-11-21T05:54:51.891Z,37.75
2016-11-21T05:55:32.634Z,37.46
2016-11-21T05:56:13.339Z,37.85
2016-11-21T05:56:54.074Z,37.75
2016-11-21T05:57:34.804Z,37.65
2016-11-21T05:58:15.516Z,37.55
2016-11-21T05:58:56.245Z,37.75
2016-11-21T05:59:36.932Z,37.75
2016-11-21T06:00:17.634Z,37.94
2016-11-21T06:00:58.331Z,37.75
2016-11-21T06:01:39.002Z,37.65
2016-11-21T06:02:19.769Z,37.65
2016-11-21T06:03:00.487Z,37.75
2016-11-21T06:03:41.152Z,37.85
2016-11-21T06:04:21.785Z,37.65
2016-11-21T06:05:02.469Z,37.65
2016-11-21T06:05:43.203Z,37.75
2016-11-21T06:06:23.878Z,37.65
2016-11-21T06:07:04.613Z,37.75
2016-11-21T06:07:45.284Z,37.94
2016-11-21T06:08:25.950Z,37.75
2016-11-21T06:09:06.593Z,37.65
2016-11-21T06:09:47.351Z,37.94
2016-11-21T06:10:27.998Z,37.85
2016-11-21T06:11:08.690Z,37.85
2016-11-21T06:11:49.408Z,37.94
2016-11-21T06:12:30.061Z,37.55
2016-11-21T06:13:10.826Z,37.65
2016-11-21T06:13:51.528Z,37.46
2016-11-21T06:14:32.212Z,37.85
2016-11-21T06:15:14.003Z,37.85
2016-11-21T06:15:54.092Z,37.65
2016-11-21T06:16:34.816Z,37.85
2016-11-21T06:17:15.515Z,37.65
2016-11-21T06:17:56.167Z,37.75
2016-11-21T06:18:36.972Z,37.65
2016-11-21T06:19:17.725Z,37.94
2016-11-21T06:19:58.397Z,37.65
2016-11-21T06:20:39.126Z,37.75
2016-11-21T06:21:19.858Z,37.36
2016-11-21T06:22:00.584Z,37.65
2016-11-21T06:22:41.386Z,37.46
2016-11-21T06:23:22.130Z,37.65
2016-11-21T06:24:02.824Z,37.55
2016-11-21T06:24:43.532Z,37.65
2016-11-21T06:25:24.220Z,37.75
2016-11-21T06:26:04.856Z,37.75
2016-11-21T06:26:45.607Z,37.55
2016-11-21T06:27:26.379Z,37.55
2016-11-21T06:28:07.038Z,37.65
2016-11-21T06:28:47.744Z,37.55
2016-11-21T06:29:28.391Z,37.55
2016-11-21T06:30:09.118Z,37.65
2016-11-21T06:30:49.865Z,37.65
2016-11-21T06:31:30.579Z,37.55
2016-11-21T06:32:11.306Z,37.65
2016-11-21T06:32:51.969Z,37.75
2016-11-21T06:33:32.679Z,37.55
2016-11-21T06:34:13.332Z,37.65
2016-11-21T06:34:54.118Z,37.46
2016-11-21T06:35:34.849Z,37.55
2016-11-21T06:36:15.526Z,37.46
2016-11-21T06:36:56.197Z,37.65
2016-11-21T06:37:36.855Z,37.65
2016-11-21T06:38:17.572Z,37.46
2016-11-21T06:38:58.251Z,37.75
2016-11-21T06:39:38.942Z,37.75
2016-11-21T06:40:19.610Z,37.75
2016-11-21T06:41:00.325Z,37.65
2016-11-21T06:41:41.004Z,37.75
2016-11-21T06:42:21.710Z,37.85
2016-11-21T06:43:02.427Z,37.55
2016-11-21T06:43:43.103Z,37.65
2016-11-21T06:44:23.782Z,37.94
2016-11-21T06:45:04.479Z,37.75
2016-11-21T06:45:45.204Z,37.75
2016-11-21T06:46:25.869Z,37.75
2016-11-21T06:47:06.549Z,37.65
2016-11-21T06:47:47.222Z,37.65
2016-11-21T06:48:27.906Z,37.75
2016-11-21T06:49:08.627Z,37.75
2016-11-21T06:49:49.334Z,37.75
2016-11-21T06:50:29.995Z,37.85
2016-11-21T06:51:10.661Z,37.65
2016-11-21T06:51:51.300Z,37.65
2016-11-21T06:52:32.037Z,37.65
2016-11-21T06:53:12.711Z,37.65
2016-11-21T06:53:53.456Z,37.65
2016-11-21T06:54:34.140Z,37.65
2016-11-21T06:55:14.801Z,37.65
2016-11-21T06:55:55.505Z,37.65
2016-11-21T06:56:36.194Z,37.85
2016-11-21T06:57:16.989Z,37.65
2016-11-21T06:57:57.656Z,37.65
2016-11-21T06:58:38.407Z,37.65
2016-11-21T06:59:19.123Z,37.55
2016-11-21T06:59:59.811Z,37.75
2016-11-21T07:00:40.500Z,37.65
2016-11-21T07:01:21.208Z,37.65
2016-11-21T07:02:01.878Z,37.65
2016-11-21T07:02:42.507Z,37.65
2016-11-21T07:03:23.203Z,37.65
2016-11-21T07:04:03.928Z,37.65
2016-11-21T07:04:44.586Z,37.55
2016-11-21T07:05:25.253Z,37.65
2016-11-21T07:06:06.010Z,37.55
2016-11-21T07:06:46.722Z,37.85
2016-11-21T07:07:27.428Z,37.65
2016-11-21T07:08:08.143Z,37.75
2016-11-21T07:08:48.858Z,37.65
2016-11-21T07:09:29.505Z,37.75
2016-11-21T07:10:10.159Z,37.65
2016-11-21T07:10:50.894Z,37.65
2016-11-21T07:11:31.636Z,37.65
2016-11-21T07:12:12.287Z,37.75
2016-11-21T07:12:52.997Z,37.75
2016-11-21T07:13:33.668Z,37.65
2016-11-21T07:14:14.374Z,37.75
2016-11-21T07:14:55.109Z,37.75
2016-11-21T07:15:35.776Z,37.65
2016-11-21T07:16:16.495Z,37.55
2016-11-21T07:16:58.028Z,37.65
2016-11-21T07:17:37.959Z,37.94
2016-11-21T07:18:18.671Z,37.65
2016-11-21T07:18:59.475Z,37.94
2016-11-21T07:19:40.137Z,37.94
2016-11-21T07:20:20.806Z,37.75
2016-11-21T07:21:01.508Z,37.65
2016-11-21T07:21:42.230Z,37.75
2016-11-21T07:22:22.961Z,37.55
2016-11-21T07:23:03.662Z,37.85
2016-11-21T07:23:44.380Z,37.94
2016-11-21T07:24:25.083Z,37.75
2016-11-21T07:25:05.788Z,37.85
2016-11-21T07:25:46.445Z,37.75
2016-11-21T07:26:27.229Z,37.75
2016-11-21T07:27:07.928Z,37.85
2016-11-21T07:27:48.608Z,37.75
2016-11-21T07:28:29.332Z,37.75
2016-11-21T07:29:10.059Z,37.65
2016-11-21T07:29:50.756Z,37.75
2016-11-21T07:30:31.467Z,37.94
2016-11-21T07:31:12.103Z,37.65
2016-11-21T07:31:52.789Z,37.85
2016-11-21T07:32:33.609Z,37.85
2016-11-21T07:33:14.328Z,37.75
2016-11-21T07:33:54.980Z,37.85
2016-11-21T07:34:35.701Z,37.85
2016-11-21T07:35:16.364Z,37.85
2016-11-21T07:35:57.056Z,37.75
2016-11-21T07:36:37.785Z,37.75
2016-11-21T07:37:18.474Z,37.85
2016-11-21T07:37:59.213Z,37.65
2016-11-21T07:38:39.883Z,37.65
2016-11-21T07:39:20.565Z,37.65
2016-11-21T07:40:01.274Z,37.85
2016-11-21T07:40:41.948Z,37.85
2016-11-21T07:41:22.602Z,37.55
2016-11-21T07:42:03.311Z,37.75
2016-11-21T07:42:44.105Z,37.65
2016-11-21T07:43:24.791Z,37.94
2016-11-21T07:44:05.559Z,37.94
2016-11-21T07:44:46.267Z,37.65
2016-11-21T07:45:27.021Z,37.65
2016-11-21T07:46:07.683Z,37.94
2016-11-21T07:46:48.351Z,37.94
2016-11-21T07:47:29.034Z,37.94
2016-11-21T07:48:09.783Z,37.94
2016-11-21T07:48:50.434Z,37.65
2016-11-21T07:49:31.185Z,37.75
2016-11-21T07:50:11.910Z,37.75
2016-11-21T07:50:52.610Z,37.94
2016-11-21T07:51:33.298Z,37.75
2016-11-21T07:52:14.098Z,37.85
2016-11-21T07:52:54.784Z,37.94
2016-11-21T07:53:35.476Z,37.65
2016-11-21T07:54:16.208Z,37.75
2016-11-21T07:54:56.893Z,37.75
2016-11-21T07:55:37.625Z,37.75
2016-11-21T07:56:18.278Z,37.75
2016-11-21T07:56:58.970Z,38.04
2016-11-21T07:57:39.694Z,37.85
2016-11-21T07:58:20.921Z,37.75
2016-11-21T07:59:02.673Z,37.85
2016-11-21T07:59:43.394Z,37.94
2016-11-21T08:00:24.106Z,37.85
2016-11-21T08:01:04.821Z,37.94
2016-11-21T08:01:45.524Z,37.85
2016-11-21T08:02:26.231Z,37.85
2016-11-21T08:03:06.967Z,37.75
2016-11-21T08:03:47.696Z,37.94
2016-11-21T08:04:28.380Z,37.85
2016-11-21T08:05:09.038Z,37.85
2016-11-21T08:05:49.818Z,37.85
2016-11-21T08:06:30.562Z,37.75
2016-11-21T08:07:11.294Z,37.85
2016-11-21T08:07:52.064Z,37.94
2016-11-21T08:08:32.850Z,37.94
2016-11-21T08:09:13.532Z,37.94
2016-11-21T08:09:54.247Z,37.94
2016-11-21T08:10:34.955Z,38.13
2016-11-21T08:11:15.643Z,37.94
2016-11-21T08:11:56.378Z,37.65
2016-11-21T08:12:37.202Z,37.85
2016-11-21T08:13:17.837Z,37.75
2016-11-21T08:13:58.568Z,38.13
2016-11-21T08:14:39.224Z,38.23
2016-11-21T08:15:19.971Z,38.23
2016-11-21T08:16:00.670Z,38.04
2016-11-21T08:16:41.361Z,37.94
2016-11-21T08:17:22.090Z,38.23
2016-11-21T08:18:02.903Z,37.94
2016-11-21T08:18:43.594Z,37.87
2016-11-21T08:19:24.341Z,37.75
2016-11-21T08:20:05.037Z,37.87
2016-11-21T08:20:45.696Z,37.77
2016-11-21T08:21:26.372Z,37.87
2016-11-21T08:22:07.078Z,37.96
2016-11-21T08:22:47.715Z,37.77
2016-11-21T08:23:28.479Z,37.67
2016-11-21T08:24:09.187Z,37.87
2016-11-21T08:24:49.921Z,37.87
2016-11-21T08:25:30.618Z,37.96
2016-11-21T08:26:11.299Z,37.67
2016-11-21T08:26:52.010Z,37.67
2016-11-21T08:27:32.698Z,37.87
2016-11-21T08:28:13.395Z,37.77
2016-11-21T08:28:54.108Z,37.77
2016-11-21T08:29:34.760Z,37.67
2016-11-21T08:30:15.414Z,37.87
2016-11-21T08:30:56.122Z,37.67
2016-11-21T08:31:36.799Z,37.67
2016-11-21T08:32:17.504Z,37.77
2016-11-21T08:33:00.534Z,37.57
2016-11-21T08:33:41.271Z,37.38
2016-11-21T08:34:22.016Z,37.48
2016-11-21T08:35:02.802Z,37.67
2016-11-21T08:35:43.526Z,37.87
2016-11-21T08:36:24.209Z,37.87
2016-11-21T08:37:05.564Z,37.57
2016-11-21T08:37:45.775Z,37.67
2016-11-21T08:38:26.461Z,37.77
2016-11-21T08:39:07.180Z,37.87
2016-11-21T08:39:47.892Z,37.77
2016-11-21T08:40:28.597Z,37.87
2016-11-21T08:41:09.316Z,37.67
2016-11-21T08:41:49.993Z,37.77
2016-11-21T08:42:30.745Z,37.67
2016-11-21T08:43:11.474Z,37.67
2016-11-21T08:43:52.169Z,37.77
2016-11-21T08:44:32.878Z,37.67
2016-11-21T08:45:13.571Z,37.77
2016-11-21T08:45:54.333Z,37.57
2016-11-21T08:46:35.010Z,37.77
2016-11-21T08:47:15.690Z,37.67
2016-11-21T08:47:56.444Z,37.77
2016-11-21T08:48:37.155Z,37.77
2016-11-21T08:49:17.836Z,37.77
2016-11-21T08:49:58.671Z,37.87
2016-11-21T08:50:39.371Z,37.67
2016-11-21T08:51:20.163Z,37.77
2016-11-21T08:52:00.846Z,37.77
2016-11-21T08:52:41.608Z,37.67
2016-11-21T08:53:22.357Z,37.87
2016-11-21T08:54:03.073Z,37.57
2016-11-21T08:54:44.029Z,37.57
2016-11-21T08:55:24.849Z,37.77
2016-11-21T08:56:05.538Z,37.98
2016-11-21T08:56:46.290Z,37.59
2016-11-21T08:57:26.936Z,37.59
2016-11-21T08:58:07.576Z,37.79
2016-11-21T08:58:48.291Z,37.79
2016-11-21T08:59:28.979Z,37.87
2016-11-21T09:00:09.714Z,37.87
2016-11-21T09:00:50.472Z,37.79
2016-11-21T09:01:31.216Z,37.77
2016-11-21T09:02:11.929Z,37.67